sensor_id;sensor_type;location;lat;lon;timestamp;pressure;altitude;pressure_sealevel;temperature;humidity
50632;BME280;49583;45.590;-122.498;2023-01-04T00:00:09;100597.80;;;5.41;67.16
50632;BME280;49583;45.590;-122.498;2023-01-04T00:02:42;100601.80;;;5.40;66.96
50632;BME280;49583;45.590;-122.498;2023-01-04T00:04:57;100598.94;;;5.34;66.40
50632;BME280;49583;45.590;-122.498;2023-01-04T00:07:11;100607.14;;;5.28;66.53
50632;BME280;49583;45.590;-122.498;2023-01-04T00:09:25;100602.91;;;5.22;66.40
50632;BME280;49583;45.590;-122.498;2023-01-04T00:11:39;100604.60;;;5.18;66.69
50632;BME280;49583;45.590;-122.498;2023-01-04T00:13:55;100606.52;;;5.12;66.61
50632;BME280;49583;45.590;-122.498;2023-01-04T00:16:11;100611.05;;;5.10;67.03
50632;BME280;49583;45.590;-122.498;2023-01-04T00:18:25;100610.91;;;5.09;67.05
50632;BME280;49583;45.590;-122.498;2023-01-04T00:20:38;100616.05;;;5.08;67.03
50632;BME280;49583;45.590;-122.498;2023-01-04T00:22:51;100614.09;;;5.04;66.74
50632;BME280;49583;45.590;-122.498;2023-01-04T00:25:06;100611.48;;;5.00;66.69
50632;BME280;49583;45.590;-122.498;2023-01-04T00:27:19;100614.92;;;4.98;66.93
50632;BME280;49583;45.590;-122.498;2023-01-04T00:29:32;100619.92;;;4.95;66.64
50632;BME280;49583;45.590;-122.498;2023-01-04T00:31:46;100617.11;;;4.92;66.89
50632;BME280;49583;45.590;-122.498;2023-01-04T00:34:01;100617.02;;;4.92;67.18
50632;BME280;49583;45.590;-122.498;2023-01-04T00:36:15;100615.39;;;4.92;67.15
50632;BME280;49583;45.590;-122.498;2023-01-04T00:38:29;100610.26;;;4.92;67.14
50632;BME280;49583;45.590;-122.498;2023-01-04T00:40:41;100608.02;;;4.90;66.97
50632;BME280;49583;45.590;-122.498;2023-01-04T00:42:54;100604.83;;;4.90;67.17
50632;BME280;49583;45.590;-122.498;2023-01-04T00:45:08;100608.52;;;4.90;67.12
50632;BME280;49583;45.590;-122.498;2023-01-04T00:47:22;100612.48;;;4.91;67.25
50632;BME280;49583;45.590;-122.498;2023-01-04T00:49:35;100607.95;;;4.90;66.98
50632;BME280;49583;45.590;-122.498;2023-01-04T00:51:48;100603.23;;;4.87;67.14
50632;BME280;49583;45.590;-122.498;2023-01-04T00:54:03;100604.87;;;4.86;67.10
50632;BME280;49583;45.590;-122.498;2023-01-04T00:56:17;100602.86;;;4.84;67.04
50632;BME280;49583;45.590;-122.498;2023-01-04T00:58:30;100605.77;;;4.81;67.22
50632;BME280;49583;45.590;-122.498;2023-01-04T01:00:45;100603.36;;;4.78;67.11
50632;BME280;49583;45.590;-122.498;2023-01-04T01:02:59;100599.91;;;4.75;66.82
50632;BME280;49583;45.590;-122.498;2023-01-04T01:05:14;100597.73;;;4.73;66.92
50632;BME280;49583;45.590;-122.498;2023-01-04T01:07:26;100597.14;;;4.70;66.88
50632;BME280;49583;45.590;-122.498;2023-01-04T01:09:40;100591.38;;;4.65;66.76
50632;BME280;49583;45.590;-122.498;2023-01-04T01:11:54;100593.36;;;4.61;66.91
50632;BME280;49583;45.590;-122.498;2023-01-04T01:14:11;100591.59;;;4.59;66.75
50632;BME280;49583;45.590;-122.498;2023-01-04T01:16:27;100587.54;;;4.54;67.08
50632;BME280;49583;45.590;-122.498;2023-01-04T01:19:00;100585.45;;;4.51;67.02
50632;BME280;49583;45.590;-122.498;2023-01-04T01:21:15;100586.95;;;4.48;67.35
50632;BME280;49583;45.590;-122.498;2023-01-04T01:23:31;100588.88;;;4.46;67.44
50632;BME280;49583;45.590;-122.498;2023-01-04T01:25:44;100583.77;;;4.43;67.38
50632;BME280;49583;45.590;-122.498;2023-01-04T01:27:58;100593.06;;;4.41;67.36
50632;BME280;49583;45.590;-122.498;2023-01-04T01:30:12;100590.54;;;4.37;67.33
50632;BME280;49583;45.590;-122.498;2023-01-04T01:32:25;100593.92;;;4.34;67.59
50632;BME280;49583;45.590;-122.498;2023-01-04T01:34:39;100597.94;;;4.30;67.34
50632;BME280;49583;45.590;-122.498;2023-01-04T01:36:52;100593.59;;;4.27;67.26
50632;BME280;49583;45.590;-122.498;2023-01-04T01:39:08;100599.95;;;4.25;67.57
50632;BME280;49583;45.590;-122.498;2023-01-04T01:41:22;100603.39;;;4.20;67.43
50632;BME280;49583;45.590;-122.498;2023-01-04T01:43:57;100614.79;;;4.20;67.51
50632;BME280;49583;45.590;-122.498;2023-01-04T01:46:12;100625.94;;;4.17;67.58
50632;BME280;49583;45.590;-122.498;2023-01-04T01:48:30;100629.25;;;4.15;67.69
50632;BME280;49583;45.590;-122.498;2023-01-04T01:50:47;100654.55;;;4.12;67.63
50632;BME280;49583;45.590;-122.498;2023-01-04T01:53:04;100682.48;;;4.10;67.96
50632;BME280;49583;45.590;-122.498;2023-01-04T01:55:18;100663.77;;;4.06;67.48
50632;BME280;49583;45.590;-122.498;2023-01-04T01:57:35;100660.27;;;4.03;67.75
50632;BME280;49583;45.590;-122.498;2023-01-04T01:59:51;100671.63;;;4.01;67.82
50632;BME280;49583;45.590;-122.498;2023-01-04T02:02:06;100674.55;;;3.99;67.90
50632;BME280;49583;45.590;-122.498;2023-01-04T02:04:22;100687.60;;;3.97;67.55
50632;BME280;49583;45.590;-122.498;2023-01-04T02:06:39;100692.30;;;3.94;67.77
50632;BME280;49583;45.590;-122.498;2023-01-04T02:08:55;100692.52;;;3.88;67.81
50632;BME280;49583;45.590;-122.498;2023-01-04T02:11:09;100703.25;;;3.84;67.84
50632;BME280;49583;45.590;-122.498;2023-01-04T02:13:25;100690.42;;;3.80;67.97
50632;BME280;49583;45.590;-122.498;2023-01-04T02:16:09;100692.16;;;3.76;67.88
50632;BME280;49583;45.590;-122.498;2023-01-04T02:18:29;100683.73;;;3.73;68.17
50632;BME280;49583;45.590;-122.498;2023-01-04T02:20:49;100668.79;;;3.71;68.21
50632;BME280;49583;45.590;-122.498;2023-01-04T02:28:43;100678.18;;;3.72;68.15
50632;BME280;49583;45.590;-122.498;2023-01-04T02:31:24;100689.90;;;3.73;68.22
50632;BME280;49583;45.590;-122.498;2023-01-04T02:33:47;100690.61;;;3.73;68.07
50632;BME280;49583;45.590;-122.498;2023-01-04T02:36:06;100690.02;;;3.73;68.03
50632;BME280;49583;45.590;-122.498;2023-01-04T02:38:27;100694.16;;;3.76;68.31
50632;BME280;49583;45.590;-122.498;2023-01-04T02:40:49;100712.79;;;3.78;68.04
50632;BME280;49583;45.590;-122.498;2023-01-04T02:43:08;100711.67;;;3.79;68.36
50632;BME280;49583;45.590;-122.498;2023-01-04T02:45:47;100716.70;;;3.81;68.23
50632;BME280;49583;45.590;-122.498;2023-01-04T02:48:06;100721.98;;;3.83;68.03
50632;BME280;49583;45.590;-122.498;2023-01-04T02:50:39;100731.33;;;3.84;67.95
50632;BME280;49583;45.590;-122.498;2023-01-04T02:52:53;100738.84;;;3.84;68.16
50632;BME280;49583;45.590;-122.498;2023-01-04T02:55:08;100743.15;;;3.85;68.24
50632;BME280;49583;45.590;-122.498;2023-01-04T02:57:42;100750.45;;;3.87;68.49
50632;BME280;49583;45.590;-122.498;2023-01-04T03:00:21;100761.23;;;3.87;68.14
50632;BME280;49583;45.590;-122.498;2023-01-04T03:02:52;100775.89;;;3.88;68.33
50632;BME280;49583;45.590;-122.498;2023-01-04T03:05:30;100780.92;;;3.90;68.46
50632;BME280;49583;45.590;-122.498;2023-01-04T03:08:06;100783.35;;;3.89;68.34
50632;BME280;49583;45.590;-122.498;2023-01-04T03:10:29;100785.98;;;3.89;68.45
50632;BME280;49583;45.590;-122.498;2023-01-04T03:12:45;100784.63;;;3.90;68.60
50632;BME280;49583;45.590;-122.498;2023-01-04T03:15:02;100787.88;;;3.90;68.54
50632;BME280;49583;45.590;-122.498;2023-01-04T03:17:20;100791.13;;;3.90;68.37
50632;BME280;49583;45.590;-122.498;2023-01-04T03:19:36;100804.71;;;3.91;68.81
50632;BME280;49583;45.590;-122.498;2023-01-04T03:22:09;100815.63;;;3.92;68.83
50632;BME280;49583;45.590;-122.498;2023-01-04T03:24:42;100823.35;;;3.95;68.85
50632;BME280;49583;45.590;-122.498;2023-01-04T03:27:11;100823.41;;;3.96;68.98
50632;BME280;49583;45.590;-122.498;2023-01-04T03:29:45;100831.02;;;3.98;68.95
50632;BME280;49583;45.590;-122.498;2023-01-04T03:32:20;100831.71;;;3.98;68.84
50632;BME280;49583;45.590;-122.498;2023-01-04T03:34:52;100830.71;;;3.97;68.82
50632;BME280;49583;45.590;-122.498;2023-01-04T03:37:24;100841.64;;;3.96;69.30
50632;BME280;49583;45.590;-122.498;2023-01-04T03:40:01;100849.16;;;3.96;69.44
50632;BME280;49583;45.590;-122.498;2023-01-04T03:42:34;100861.60;;;3.97;69.05
50632;BME280;49583;45.590;-122.498;2023-01-04T03:45:15;100860.92;;;3.94;69.34
50632;BME280;49583;45.590;-122.498;2023-01-04T03:47:50;100859.82;;;3.91;69.41
50632;BME280;49583;45.590;-122.498;2023-01-04T03:50:26;100868.34;;;3.87;69.56
50632;BME280;49583;45.590;-122.498;2023-01-04T03:52:42;100863.75;;;3.85;69.76
50632;BME280;49583;45.590;-122.498;2023-01-04T03:54:59;100871.04;;;3.84;69.82
50632;BME280;49583;45.590;-122.498;2023-01-04T03:57:13;100884.26;;;3.84;70.06
50632;BME280;49583;45.590;-122.498;2023-01-04T03:59:27;100886.29;;;3.83;69.88
50632;BME280;49583;45.590;-122.498;2023-01-04T04:01:43;100888.19;;;3.82;69.90
50632;BME280;49583;45.590;-122.498;2023-01-04T04:03:57;100885.95;;;3.84;69.98
50632;BME280;49583;45.590;-122.498;2023-01-04T04:06:27;100882.94;;;3.82;69.89
50632;BME280;49583;45.590;-122.498;2023-01-04T04:08:56;100884.62;;;3.82;70.12
50632;BME280;49583;45.590;-122.498;2023-01-04T04:11:10;100893.77;;;3.82;70.10
50632;BME280;49583;45.590;-122.498;2023-01-04T04:13:40;100904.65;;;3.83;70.30
50632;BME280;49583;45.590;-122.498;2023-01-04T04:15:56;100899.20;;;3.82;70.23
50632;BME280;49583;45.590;-122.498;2023-01-04T04:18:10;100895.83;;;3.80;70.45
50632;BME280;49583;45.590;-122.498;2023-01-04T04:20:24;100892.07;;;3.81;70.48
50632;BME280;49583;45.590;-122.498;2023-01-04T04:22:38;100885.52;;;3.80;70.48
50632;BME280;49583;45.590;-122.498;2023-01-04T04:24:51;100886.65;;;3.79;70.67
50632;BME280;49583;45.590;-122.498;2023-01-04T04:27:05;100892.18;;;3.74;70.66
50632;BME280;49583;45.590;-122.498;2023-01-04T04:29:19;100903.22;;;3.72;70.68
50632;BME280;49583;45.590;-122.498;2023-01-04T04:31:32;100901.02;;;3.68;70.85
50632;BME280;49583;45.590;-122.498;2023-01-04T04:33:45;100895.45;;;3.67;71.05
50632;BME280;49583;45.590;-122.498;2023-01-04T04:35:59;100895.02;;;3.65;71.12
50632;BME280;49583;45.590;-122.498;2023-01-04T04:38:14;100903.05;;;3.63;71.14
50632;BME280;49583;45.590;-122.498;2023-01-04T04:40:28;100903.02;;;3.61;71.33
50632;BME280;49583;45.590;-122.498;2023-01-04T04:42:58;100899.62;;;3.58;71.48
50632;BME280;49583;45.590;-122.498;2023-01-04T04:45:13;100904.20;;;3.55;71.68
50632;BME280;49583;45.590;-122.498;2023-01-04T04:47:28;100897.52;;;3.54;71.54
50632;BME280;49583;45.590;-122.498;2023-01-04T04:49:42;100892.88;;;3.52;71.62
50632;BME280;49583;45.590;-122.498;2023-01-04T04:51:59;100888.55;;;3.52;71.83
50632;BME280;49583;45.590;-122.498;2023-01-04T04:54:16;100889.93;;;3.51;71.93
50632;BME280;49583;45.590;-122.498;2023-01-04T04:56:29;100887.46;;;3.49;71.95
50632;BME280;49583;45.590;-122.498;2023-01-04T04:58:43;100889.85;;;3.49;72.03
50632;BME280;49583;45.590;-122.498;2023-01-04T05:00:55;100888.77;;;3.49;71.97
50632;BME280;49583;45.590;-122.498;2023-01-04T05:03:08;100891.71;;;3.49;72.27
50632;BME280;49583;45.590;-122.498;2023-01-04T05:05:21;100892.16;;;3.50;72.28
50632;BME280;49583;45.590;-122.498;2023-01-04T05:07:35;100897.73;;;3.50;72.32
50632;BME280;49583;45.590;-122.498;2023-01-04T05:09:49;100898.05;;;3.51;72.33
50632;BME280;49583;45.590;-122.498;2023-01-04T05:12:02;100896.37;;;3.51;72.43
50632;BME280;49583;45.590;-122.498;2023-01-04T05:14:28;100899.78;;;3.51;72.53
50632;BME280;49583;45.590;-122.498;2023-01-04T05:16:43;100906.33;;;3.52;72.26
50632;BME280;49583;45.590;-122.498;2023-01-04T05:18:56;100910.05;;;3.52;72.51
50632;BME280;49583;45.590;-122.498;2023-01-04T05:21:10;100915.21;;;3.53;72.44
50632;BME280;49583;45.590;-122.498;2023-01-04T05:23:28;100917.15;;;3.55;72.91
50632;BME280;49583;45.590;-122.498;2023-01-04T05:25:41;100922.52;;;3.54;72.87
50632;BME280;49583;45.590;-122.498;2023-01-04T05:27:55;100920.04;;;3.54;73.06
50632;BME280;49583;45.590;-122.498;2023-01-04T05:30:12;100920.17;;;3.52;73.23
50632;BME280;49583;45.590;-122.498;2023-01-04T05:32:42;100905.73;;;3.49;73.61
50632;BME280;49583;45.590;-122.498;2023-01-04T05:34:56;100915.59;;;3.47;73.63
50632;BME280;49583;45.590;-122.498;2023-01-04T05:37:10;100918.42;;;3.46;73.97
50632;BME280;49583;45.590;-122.498;2023-01-04T05:39:24;100920.91;;;3.46;74.48
50632;BME280;49583;45.590;-122.498;2023-01-04T05:41:36;100924.91;;;3.46;74.82
50632;BME280;49583;45.590;-122.498;2023-01-04T05:44:06;100921.44;;;3.44;74.82
50632;BME280;49583;45.590;-122.498;2023-01-04T05:46:19;100926.95;;;3.41;74.78
50632;BME280;49583;45.590;-122.498;2023-01-04T05:48:33;100928.96;;;3.39;74.44
50632;BME280;49583;45.590;-122.498;2023-01-04T05:50:47;100926.71;;;3.36;74.94
50632;BME280;49583;45.590;-122.498;2023-01-04T05:53:00;100926.19;;;3.35;74.75
50632;BME280;49583;45.590;-122.498;2023-01-04T05:55:14;100930.47;;;3.37;74.84
50632;BME280;49583;45.590;-122.498;2023-01-04T05:57:28;100927.04;;;3.35;75.29
50632;BME280;49583;45.590;-122.498;2023-01-04T05:59:41;100928.23;;;3.32;75.24
50632;BME280;49583;45.590;-122.498;2023-01-04T06:01:56;100930.29;;;3.31;75.40
50632;BME280;49583;45.590;-122.498;2023-01-04T06:04:09;100934.26;;;3.30;75.41
50632;BME280;49583;45.590;-122.498;2023-01-04T06:06:22;100935.94;;;3.30;75.53
50632;BME280;49583;45.590;-122.498;2023-01-04T06:08:36;100927.89;;;3.29;75.96
50632;BME280;49583;45.590;-122.498;2023-01-04T06:10:56;100939.17;;;3.28;76.02
50632;BME280;49583;45.590;-122.498;2023-01-04T06:13:09;100941.94;;;3.28;75.84
50632;BME280;49583;45.590;-122.498;2023-01-04T06:15:24;100952.77;;;3.28;76.22
50632;BME280;49583;45.590;-122.498;2023-01-04T06:17:38;100958.06;;;3.28;76.10
50632;BME280;49583;45.590;-122.498;2023-01-04T06:19:53;100959.33;;;3.25;76.16
50632;BME280;49583;45.590;-122.498;2023-01-04T06:22:06;100960.95;;;3.22;76.65
50632;BME280;49583;45.590;-122.498;2023-01-04T06:24:20;100956.00;;;3.18;76.83
50632;BME280;49583;45.590;-122.498;2023-01-04T06:26:33;100953.58;;;3.18;76.48
50632;BME280;49583;45.590;-122.498;2023-01-04T06:28:47;100954.70;;;3.17;76.63
50632;BME280;49583;45.590;-122.498;2023-01-04T06:31:04;100953.16;;;3.15;76.62
50632;BME280;49583;45.590;-122.498;2023-01-04T06:33:17;100953.50;;;3.16;76.96
50632;BME280;49583;45.590;-122.498;2023-01-04T06:35:31;100957.84;;;3.18;77.48
50632;BME280;49583;45.590;-122.498;2023-01-04T06:37:48;100958.29;;;3.20;77.38
50632;BME280;49583;45.590;-122.498;2023-01-04T06:40:01;100970.52;;;3.23;77.65
50632;BME280;49583;45.590;-122.498;2023-01-04T06:42:16;100976.93;;;3.24;77.43
50632;BME280;49583;45.590;-122.498;2023-01-04T06:44:47;100986.67;;;3.26;77.23
50632;BME280;49583;45.590;-122.498;2023-01-04T06:47:00;100982.13;;;3.26;77.26
50632;BME280;49583;45.590;-122.498;2023-01-04T06:49:14;100979.35;;;3.27;77.43
50632;BME280;49583;45.590;-122.498;2023-01-04T06:51:27;100985.99;;;3.28;77.61
50632;BME280;49583;45.590;-122.498;2023-01-04T06:53:42;100983.71;;;3.28;78.03
50632;BME280;49583;45.590;-122.498;2023-01-04T06:55:57;100984.34;;;3.27;78.10
50632;BME280;49583;45.590;-122.498;2023-01-04T06:58:11;100992.45;;;3.27;78.01
50632;BME280;49583;45.590;-122.498;2023-01-04T07:00:25;100993.39;;;3.26;78.40
50632;BME280;49583;45.590;-122.498;2023-01-04T07:02:38;100996.96;;;3.26;78.41
50632;BME280;49583;45.590;-122.498;2023-01-04T07:05:12;101000.63;;;3.27;78.44
50632;BME280;49583;45.590;-122.498;2023-01-04T07:07:26;101006.20;;;3.28;78.33
50632;BME280;49583;45.590;-122.498;2023-01-04T07:09:40;101001.30;;;3.29;78.37
50632;BME280;49583;45.590;-122.498;2023-01-04T07:11:54;101005.53;;;3.31;78.02
50632;BME280;49583;45.590;-122.498;2023-01-04T07:14:11;101020.87;;;3.33;78.02
50632;BME280;49583;45.590;-122.498;2023-01-04T07:16:25;101026.13;;;3.34;77.68
50632;BME280;49583;45.590;-122.498;2023-01-04T07:18:38;101017.56;;;3.32;77.84
50632;BME280;49583;45.590;-122.498;2023-01-04T07:20:51;101016.59;;;3.33;77.72
50632;BME280;49583;45.590;-122.498;2023-01-04T07:23:06;101007.46;;;3.32;78.05
50632;BME280;49583;45.590;-122.498;2023-01-04T07:25:21;101007.14;;;3.32;77.91
50632;BME280;49583;45.590;-122.498;2023-01-04T07:27:34;101010.36;;;3.35;77.97
50632;BME280;49583;45.590;-122.498;2023-01-04T07:29:49;101014.61;;;3.37;77.76
50632;BME280;49583;45.590;-122.498;2023-01-04T07:32:04;101014.30;;;3.39;77.97
50632;BME280;49583;45.590;-122.498;2023-01-04T07:34:23;101016.67;;;3.40;77.66
50632;BME280;49583;45.590;-122.498;2023-01-04T07:36:37;101021.06;;;3.39;77.71
50632;BME280;49583;45.590;-122.498;2023-01-04T07:38:51;101020.98;;;3.38;77.35
50632;BME280;49583;45.590;-122.498;2023-01-04T07:41:05;101013.23;;;3.36;77.42
50632;BME280;49583;45.590;-122.498;2023-01-04T07:43:17;101018.26;;;3.36;77.47
50632;BME280;49583;45.590;-122.498;2023-01-04T07:45:36;101020.23;;;3.37;77.30
50632;BME280;49583;45.590;-122.498;2023-01-04T07:47:52;101026.13;;;3.37;77.60
50632;BME280;49583;45.590;-122.498;2023-01-04T07:50:08;101028.45;;;3.38;77.45
50632;BME280;49583;45.590;-122.498;2023-01-04T07:52:21;101032.54;;;3.40;77.55
50632;BME280;49583;45.590;-122.498;2023-01-04T07:54:35;101030.96;;;3.41;77.54
50632;BME280;49583;45.590;-122.498;2023-01-04T07:56:48;101025.42;;;3.42;77.49
50632;BME280;49583;45.590;-122.498;2023-01-04T07:59:02;101029.85;;;3.43;77.68
50632;BME280;49583;45.590;-122.498;2023-01-04T08:01:17;101024.13;;;3.42;77.82
50632;BME280;49583;45.590;-122.498;2023-01-04T08:03:30;101028.70;;;3.39;77.87
50632;BME280;49583;45.590;-122.498;2023-01-04T08:05:44;101028.32;;;3.36;77.57
50632;BME280;49583;45.590;-122.498;2023-01-04T08:07:56;101032.52;;;3.34;78.15
50632;BME280;49583;45.590;-122.498;2023-01-04T08:10:10;101037.05;;;3.35;78.05
50632;BME280;49583;45.590;-122.498;2023-01-04T08:12:24;101034.77;;;3.36;77.69
50632;BME280;49583;45.590;-122.498;2023-01-04T08:14:41;101027.02;;;3.36;77.99
50632;BME280;49583;45.590;-122.498;2023-01-04T08:16:55;101013.67;;;3.37;77.83
50632;BME280;49583;45.590;-122.498;2023-01-04T08:19:10;101017.63;;;3.40;78.11
50632;BME280;49583;45.590;-122.498;2023-01-04T08:21:26;101014.41;;;3.43;78.12
50632;BME280;49583;45.590;-122.498;2023-01-04T08:23:39;101010.52;;;3.46;78.07
50632;BME280;49583;45.590;-122.498;2023-01-04T08:25:59;101011.11;;;3.54;78.11
50632;BME280;49583;45.590;-122.498;2023-01-04T08:28:13;101004.96;;;3.60;77.83
50632;BME280;49583;45.590;-122.498;2023-01-04T08:30:27;101009.27;;;3.64;77.69
50632;BME280;49583;45.590;-122.498;2023-01-04T08:32:40;101000.76;;;3.71;77.66
50632;BME280;49583;45.590;-122.498;2023-01-04T08:34:54;101007.09;;;3.78;77.48
50632;BME280;49583;45.590;-122.498;2023-01-04T08:37:07;101013.56;;;3.82;77.17
50632;BME280;49583;45.590;-122.498;2023-01-04T08:39:21;101013.85;;;3.84;76.98
50632;BME280;49583;45.590;-122.498;2023-01-04T08:41:35;101014.78;;;3.88;76.81
50632;BME280;49583;45.590;-122.498;2023-01-04T08:44:22;101023.88;;;3.88;76.72
50632;BME280;49583;45.590;-122.498;2023-01-04T08:46:37;101027.56;;;3.86;76.19
50632;BME280;49583;45.590;-122.498;2023-01-04T08:48:52;101030.70;;;3.81;76.14
50632;BME280;49583;45.590;-122.498;2023-01-04T08:51:10;101027.13;;;3.77;75.96
50632;BME280;49583;45.590;-122.498;2023-01-04T08:53:24;101029.64;;;3.73;76.04
50632;BME280;49583;45.590;-122.498;2023-01-04T08:55:38;101030.78;;;3.71;76.00
50632;BME280;49583;45.590;-122.498;2023-01-04T08:57:53;101028.77;;;3.68;76.11
50632;BME280;49583;45.590;-122.498;2023-01-04T09:00:10;101023.70;;;3.65;76.05
50632;BME280;49583;45.590;-122.498;2023-01-04T09:02:25;101025.48;;;3.61;75.95
50632;BME280;49583;45.590;-122.498;2023-01-04T09:04:39;101024.20;;;3.55;76.15
50632;BME280;49583;45.590;-122.498;2023-01-04T09:06:53;101024.98;;;3.52;76.24
50632;BME280;49583;45.590;-122.498;2023-01-04T09:09:06;101024.50;;;3.50;76.51
50632;BME280;49583;45.590;-122.498;2023-01-04T09:11:21;101027.14;;;3.48;76.30
50632;BME280;49583;45.590;-122.498;2023-01-04T09:13:34;101022.86;;;3.48;76.52
50632;BME280;49583;45.590;-122.498;2023-01-04T09:15:48;101021.46;;;3.48;76.40
50632;BME280;49583;45.590;-122.498;2023-01-04T09:18:01;101020.04;;;3.47;76.66
50632;BME280;49583;45.590;-122.498;2023-01-04T09:20:35;101012.97;;;3.45;76.59
50632;BME280;49583;45.590;-122.498;2023-01-04T09:22:48;101005.47;;;3.44;76.70
50632;BME280;49583;45.590;-122.498;2023-01-04T09:25:01;101007.41;;;3.44;76.70
50632;BME280;49583;45.590;-122.498;2023-01-04T09:27:15;101004.39;;;3.44;76.60
50632;BME280;49583;45.590;-122.498;2023-01-04T09:29:29;101000.31;;;3.45;76.83
50632;BME280;49583;45.590;-122.498;2023-01-04T09:31:42;100999.21;;;3.45;76.64
50632;BME280;49583;45.590;-122.498;2023-01-04T09:33:55;101002.42;;;3.47;76.80
50632;BME280;49583;45.590;-122.498;2023-01-04T09:36:27;101003.05;;;3.48;76.51
50632;BME280;49583;45.590;-122.498;2023-01-04T09:38:40;100994.67;;;3.47;76.55
50632;BME280;49583;45.590;-122.498;2023-01-04T09:40:57;100988.26;;;3.49;76.45
50632;BME280;49583;45.590;-122.498;2023-01-04T09:43:18;100974.98;;;3.50;76.68
50632;BME280;49583;45.590;-122.498;2023-01-04T09:45:32;100963.08;;;3.51;76.61
50632;BME280;49583;45.590;-122.498;2023-01-04T09:47:48;100957.11;;;3.52;76.34
50632;BME280;49583;45.590;-122.498;2023-01-04T09:50:09;100953.86;;;3.53;76.40
50632;BME280;49583;45.590;-122.498;2023-01-04T09:52:27;100956.74;;;3.54;76.33
50632;BME280;49583;45.590;-122.498;2023-01-04T09:54:49;100958.60;;;3.56;76.40
50632;BME280;49583;45.590;-122.498;2023-01-04T09:57:19;100953.11;;;3.59;76.44
50632;BME280;49583;45.590;-122.498;2023-01-04T09:59:35;100947.52;;;3.59;76.25
50632;BME280;49583;45.590;-122.498;2023-01-04T10:01:51;100940.37;;;3.59;76.29
50632;BME280;49583;45.590;-122.498;2023-01-04T10:04:16;100936.55;;;3.60;76.18
50632;BME280;49583;45.590;-122.498;2023-01-04T10:06:33;100941.22;;;3.60;76.03
50632;BME280;49583;45.590;-122.498;2023-01-04T10:08:47;100935.90;;;3.61;76.14
50632;BME280;49583;45.590;-122.498;2023-01-04T10:11:17;100931.94;;;3.63;76.24
50632;BME280;49583;45.590;-122.498;2023-01-04T10:13:46;100923.98;;;3.65;76.16
50632;BME280;49583;45.590;-122.498;2023-01-04T10:16:06;100926.51;;;3.66;76.13
50632;BME280;49583;45.590;-122.498;2023-01-04T10:18:39;100934.48;;;3.68;76.07
50632;BME280;49583;45.590;-122.498;2023-01-04T10:21:28;100926.96;;;3.65;75.81
50632;BME280;49583;45.590;-122.498;2023-01-04T10:23:53;100923.88;;;3.63;75.64
50632;BME280;49583;45.590;-122.498;2023-01-04T10:26:13;100922.16;;;3.63;75.78
50632;BME280;49583;45.590;-122.498;2023-01-04T10:28:39;100919.55;;;3.63;75.61
50632;BME280;49583;45.590;-122.498;2023-01-04T10:31:04;100908.67;;;3.64;75.55
50632;BME280;49583;45.590;-122.498;2023-01-04T10:33:48;100903.98;;;3.68;75.62
50632;BME280;49583;45.590;-122.498;2023-01-04T10:36:03;100901.94;;;3.70;75.46
50632;BME280;49583;45.590;-122.498;2023-01-04T10:38:26;100905.27;;;3.73;75.56
50632;BME280;49583;45.590;-122.498;2023-01-04T10:40:41;100903.10;;;3.76;75.51
50632;BME280;49583;45.590;-122.498;2023-01-04T10:43:00;100898.79;;;3.79;75.37
50632;BME280;49583;45.590;-122.498;2023-01-04T10:45:18;100900.44;;;3.82;75.04
50632;BME280;49583;45.590;-122.498;2023-01-04T10:47:39;100896.54;;;3.85;75.23
50632;BME280;49583;45.590;-122.498;2023-01-04T10:49:58;100888.33;;;3.86;75.26
50632;BME280;49583;45.590;-122.498;2023-01-04T10:52:18;100887.97;;;3.89;74.97
50632;BME280;49583;45.590;-122.498;2023-01-04T10:54:38;100886.11;;;3.90;74.55
50632;BME280;49583;45.590;-122.498;2023-01-04T10:56:59;100876.59;;;3.91;74.62
50632;BME280;49583;45.590;-122.498;2023-01-04T10:59:20;100870.69;;;3.94;74.74
50632;BME280;49583;45.590;-122.498;2023-01-04T11:01:39;100858.15;;;3.96;74.37
50632;BME280;49583;45.590;-122.498;2023-01-04T11:03:57;100854.77;;;3.98;74.37
50632;BME280;49583;45.590;-122.498;2023-01-04T11:06:16;100852.16;;;4.00;74.75
50632;BME280;49583;45.590;-122.498;2023-01-04T11:08:35;100849.27;;;4.01;74.48
50632;BME280;49583;45.590;-122.498;2023-01-04T11:10:54;100850.16;;;4.03;74.61
50632;BME280;49583;45.590;-122.498;2023-01-04T11:13:10;100845.90;;;4.05;74.50
50632;BME280;49583;45.590;-122.498;2023-01-04T11:15:25;100843.73;;;4.05;74.45
50632;BME280;49583;45.590;-122.498;2023-01-04T11:17:39;100840.48;;;4.08;74.56
50632;BME280;49583;45.590;-122.498;2023-01-04T11:19:54;100839.84;;;4.09;74.48
50632;BME280;49583;45.590;-122.498;2023-01-04T11:22:13;100838.38;;;4.10;74.33
50632;BME280;49583;45.590;-122.498;2023-01-04T11:24:31;100828.17;;;4.13;73.97
50632;BME280;49583;45.590;-122.498;2023-01-04T11:26:47;100826.36;;;4.16;74.14
50632;BME280;49583;45.590;-122.498;2023-01-04T11:29:03;100821.43;;;4.19;74.08
50632;BME280;49583;45.590;-122.498;2023-01-04T11:31:23;100816.70;;;4.20;74.01
50632;BME280;49583;45.590;-122.498;2023-01-04T11:33:55;100816.61;;;4.21;73.61
50632;BME280;49583;45.590;-122.498;2023-01-04T11:36:08;100811.73;;;4.24;73.56
50632;BME280;49583;45.590;-122.498;2023-01-04T11:38:22;100815.84;;;4.26;73.45
50632;BME280;49583;45.590;-122.498;2023-01-04T11:40:36;100813.89;;;4.28;73.19
50632;BME280;49583;45.590;-122.498;2023-01-04T11:42:52;100816.29;;;4.29;73.25
50632;BME280;49583;45.590;-122.498;2023-01-04T11:45:22;100818.13;;;4.32;72.90
50632;BME280;49583;45.590;-122.498;2023-01-04T11:47:37;100810.02;;;4.34;72.74